sensor_id;sensor_type;location;lat;lon;timestamp;P1;durP1;ratioP1;P2;durP2;ratioP2
34828;SDS011;21042;47.620;12.188;2022-09-01T00:01:44;31.20;;;18.67;;
34828;SDS011;21042;47.620;12.188;2022-09-01T00:04:14;37.10;;;21.13;;
34828;SDS011;21042;47.620;12.188;2022-09-01T00:06:42;35.90;;;20.02;;
34828;SDS011;21042;47.620;12.188;2022-09-01T00:09:11;33.25;;;20.33;;
34828;SDS011;21042;47.620;12.188;2022-09-01T00:11:41;34.35;;;19.92;;
34828;SDS011;21042;47.620;12.188;2022-09-01T00:14:16;32.72;;;19.13;;
34828;SDS011;21042;47.620;12.188;2022-09-01T00:17:00;34.70;;;19.73;;
34828;SDS011;21042;47.620;12.188;2022-09-01T00:19:29;32.70;;;19.08;;
34828;SDS011;21042;47.620;12.188;2022-09-01T00:21:58;36.85;;;20.83;;
34828;SDS011;21042;47.620;12.188;2022-09-01T00:24:26;34.75;;;19.90;;
34828;SDS011;21042;47.620;12.188;2022-09-01T00:26:54;35.88;;;20.48;;
34828;SDS011;21042;47.620;12.188;2022-09-01T00:29:23;37.95;;;20.15;;
34828;SDS011;21042;47.620;12.188;2022-09-01T00:31:51;35.78;;;19.75;;
34828;SDS011;21042;47.620;12.188;2022-09-01T00:34:18;33.20;;;19.83;;
34828;SDS011;21042;47.620;12.188;2022-09-01T00:36:45;33.67;;;19.45;;
34828;SDS011;21042;47.620;12.188;2022-09-01T00:39:13;34.70;;;20.02;;
34828;SDS011;21042;47.620;12.188;2022-09-01T00:41:40;35.55;;;20.02;;
34828;SDS011;21042;47.620;12.188;2022-09-01T00:44:11;36.58;;;19.75;;
34828;SDS011;21042;47.620;12.188;2022-09-01T00:46:42;38.03;;;20.70;;
34828;SDS011;21042;47.620;12.188;2022-09-01T00:49:31;33.08;;;20.63;;
34828;SDS011;21042;47.620;12.188;2022-09-01T00:52:05;31.95;;;19.50;;
34828;SDS011;21042;47.620;12.188;2022-09-01T00:54:52;35.28;;;20.60;;
34828;SDS011;21042;47.620;12.188;2022-09-01T00:57:23;33.95;;;20.58;;
34828;SDS011;21042;47.620;12.188;2022-09-01T00:59:54;33.88;;;19.95;;
34828;SDS011;21042;47.620;12.188;2022-09-01T01:02:24;38.83;;;20.95;;
34828;SDS011;21042;47.620;12.188;2022-09-01T01:07:20;35.20;;;19.70;;
34828;SDS011;21042;47.620;12.188;2022-09-01T01:09:48;35.33;;;21.70;;
34828;SDS011;21042;47.620;12.188;2022-09-01T01:12:16;36.67;;;21.83;;
34828;SDS011;21042;47.620;12.188;2022-09-01T01:14:47;41.72;;;20.90;;
34828;SDS011;21042;47.620;12.188;2022-09-01T01:17:17;39.00;;;21.33;;
34828;SDS011;21042;47.620;12.188;2022-09-01T01:19:52;36.72;;;21.58;;
34828;SDS011;21042;47.620;12.188;2022-09-01T01:28:12;42.10;;;21.98;;
34828;SDS011;21042;47.620;12.188;2022-09-01T01:30:43;36.22;;;22.73;;
34828;SDS011;21042;47.620;12.188;2022-09-01T01:33:22;41.08;;;22.88;;
34828;SDS011;21042;47.620;12.188;2022-09-01T01:35:51;43.80;;;24.77;;
34828;SDS011;21042;47.620;12.188;2022-09-01T01:38:19;46.88;;;23.40;;
34828;SDS011;21042;47.620;12.188;2022-09-01T01:40:49;42.67;;;23.58;;
34828;SDS011;21042;47.620;12.188;2022-09-01T01:43:20;42.40;;;23.17;;
34828;SDS011;21042;47.620;12.188;2022-09-01T01:45:49;42.92;;;24.45;;
34828;SDS011;21042;47.620;12.188;2022-09-01T01:48:21;44.20;;;24.35;;
34828;SDS011;21042;47.620;12.188;2022-09-01T01:50:51;44.00;;;23.40;;
34828;SDS011;21042;47.620;12.188;2022-09-01T01:53:21;40.97;;;22.73;;
34828;SDS011;21042;47.620;12.188;2022-09-01T01:55:49;42.67;;;23.75;;
34828;SDS011;21042;47.620;12.188;2022-09-01T01:58:16;41.05;;;22.17;;
34828;SDS011;21042;47.620;12.188;2022-09-01T02:00:46;38.85;;;21.30;;
34828;SDS011;21042;47.620;12.188;2022-09-01T02:03:30;40.60;;;22.65;;
34828;SDS011;21042;47.620;12.188;2022-09-01T02:06:04;41.08;;;21.85;;
34828;SDS011;21042;47.620;12.188;2022-09-01T02:08:36;38.45;;;21.38;;
34828;SDS011;21042;47.620;12.188;2022-09-01T02:11:04;41.47;;;22.10;;
34828;SDS011;21042;47.620;12.188;2022-09-01T02:13:33;38.60;;;20.52;;
34828;SDS011;21042;47.620;12.188;2022-09-01T02:16:02;38.92;;;21.40;;
34828;SDS011;21042;47.620;12.188;2022-09-01T02:18:35;41.80;;;21.48;;
34828;SDS011;21042;47.620;12.188;2022-09-01T02:21:06;45.22;;;22.70;;
34828;SDS011;21042;47.620;12.188;2022-09-01T02:23:42;44.17;;;23.15;;
34828;SDS011;21042;47.620;12.188;2022-09-01T02:26:09;41.03;;;22.17;;
34828;SDS011;21042;47.620;12.188;2022-09-01T02:28:43;41.85;;;22.38;;
34828;SDS011;21042;47.620;12.188;2022-09-01T02:31:19;42.03;;;22.38;;
34828;SDS011;21042;47.620;12.188;2022-09-01T02:33:47;47.30;;;23.77;;
34828;SDS011;21042;47.620;12.188;2022-09-01T02:36:14;48.00;;;24.90;;
34828;SDS011;21042;47.620;12.188;2022-09-01T02:38:45;43.55;;;22.48;;
34828;SDS011;21042;47.620;12.188;2022-09-01T02:41:20;41.38;;;23.02;;
34828;SDS011;21042;47.620;12.188;2022-09-01T02:43:48;42.67;;;23.40;;
34828;SDS011;21042;47.620;12.188;2022-09-01T02:46:15;41.03;;;21.80;;
34828;SDS011;21042;47.620;12.188;2022-09-01T02:48:44;40.78;;;22.27;;
34828;SDS011;21042;47.620;12.188;2022-09-01T02:51:14;42.22;;;23.02;;
34828;SDS011;21042;47.620;12.188;2022-09-01T02:53:44;39.92;;;21.67;;
34828;SDS011;21042;47.620;12.188;2022-09-01T02:56:14;41.30;;;21.25;;
34828;SDS011;21042;47.620;12.188;2022-09-01T02:58:42;43.35;;;21.30;;
34828;SDS011;21042;47.620;12.188;2022-09-01T03:01:16;40.67;;;21.83;;
34828;SDS011;21042;47.620;12.188;2022-09-01T03:03:47;40.70;;;21.20;;
34828;SDS011;21042;47.620;12.188;2022-09-01T03:06:15;43.17;;;22.38;;
34828;SDS011;21042;47.620;12.188;2022-09-01T03:08:45;38.63;;;20.95;;
34828;SDS011;21042;47.620;12.188;2022-09-01T03:11:13;42.75;;;21.45;;
34828;SDS011;21042;47.620;12.188;2022-09-01T03:13:40;38.88;;;21.98;;
34828;SDS011;21042;47.620;12.188;2022-09-01T03:16:08;36.45;;;20.92;;
34828;SDS011;21042;47.620;12.188;2022-09-01T03:18:36;37.03;;;20.75;;
34828;SDS011;21042;47.620;12.188;2022-09-01T03:21:05;33.65;;;20.60;;
34828;SDS011;21042;47.620;12.188;2022-09-01T03:23:33;37.83;;;20.55;;
34828;SDS011;21042;47.620;12.188;2022-09-01T03:26:01;35.50;;;20.77;;
34828;SDS011;21042;47.620;12.188;2022-09-01T03:30:55;35.83;;;20.23;;
34828;SDS011;21042;47.620;12.188;2022-09-01T03:33:25;38.85;;;21.42;;
34828;SDS011;21042;47.620;12.188;2022-09-01T03:35:54;39.55;;;21.95;;
34828;SDS011;21042;47.620;12.188;2022-09-01T03:38:22;40.97;;;21.67;;
34828;SDS011;21042;47.620;12.188;2022-09-01T03:40:52;41.75;;;22.20;;
34828;SDS011;21042;47.620;12.188;2022-09-01T03:43:31;41.70;;;21.92;;
34828;SDS011;21042;47.620;12.188;2022-09-01T03:46:01;43.05;;;21.20;;
34828;SDS011;21042;47.620;12.188;2022-09-01T03:48:29;44.80;;;24.40;;
34828;SDS011;21042;47.620;12.188;2022-09-01T03:50:57;43.95;;;23.08;;
34828;SDS011;21042;47.620;12.188;2022-09-01T03:53:30;42.53;;;22.35;;
34828;SDS011;21042;47.620;12.188;2022-09-01T03:56:01;45.78;;;23.65;;
34828;SDS011;21042;47.620;12.188;2022-09-01T03:58:30;49.97;;;23.88;;
34828;SDS011;21042;47.620;12.188;2022-09-01T04:00:58;43.75;;;24.42;;
34828;SDS011;21042;47.620;12.188;2022-09-01T04:03:29;47.05;;;24.10;;
34828;SDS011;21042;47.620;12.188;2022-09-01T04:05:59;44.83;;;24.30;;
34828;SDS011;21042;47.620;12.188;2022-09-01T04:08:27;47.80;;;24.73;;
34828;SDS011;21042;47.620;12.188;2022-09-01T04:11:09;49.35;;;23.63;;
34828;SDS011;21042;47.620;12.188;2022-09-01T04:13:39;47.83;;;23.80;;
34828;SDS011;21042;47.620;12.188;2022-09-01T04:16:15;48.40;;;24.20;;
34828;SDS011;21042;47.620;12.188;2022-09-01T04:19:04;42.60;;;23.00;;
34828;SDS011;21042;47.620;12.188;2022-09-01T04:21:42;44.23;;;24.03;;
34828;SDS011;21042;47.620;12.188;2022-09-01T04:24:10;46.50;;;24.83;;
34828;SDS011;21042;47.620;12.188;2022-09-01T04:26:41;46.60;;;23.63;;
34828;SDS011;21042;47.620;12.188;2022-09-01T04:29:13;46.67;;;24.08;;
34828;SDS011;21042;47.620;12.188;2022-09-01T04:31:45;42.65;;;23.92;;
34828;SDS011;21042;47.620;12.188;2022-09-01T04:34:19;42.63;;;23.08;;
34828;SDS011;21042;47.620;12.188;2022-09-01T04:36:47;45.10;;;23.75;;
34828;SDS011;21042;47.620;12.188;2022-09-01T04:39:21;41.90;;;22.25;;
34828;SDS011;21042;47.620;12.188;2022-09-01T04:41:49;47.17;;;22.73;;
34828;SDS011;21042;47.620;12.188;2022-09-01T04:44:16;39.78;;;21.70;;
34828;SDS011;21042;47.620;12.188;2022-09-01T04:46:45;41.72;;;22.92;;
34828;SDS011;21042;47.620;12.188;2022-09-01T04:49:14;41.10;;;21.55;;
34828;SDS011;21042;47.620;12.188;2022-09-01T04:51:48;39.90;;;23.20;;
34828;SDS011;21042;47.620;12.188;2022-09-01T04:54:21;38.83;;;21.90;;
34828;SDS011;21042;47.620;12.188;2022-09-01T04:56:48;44.65;;;21.52;;
34828;SDS011;21042;47.620;12.188;2022-09-01T04:59:18;34.70;;;19.00;;
34828;SDS011;21042;47.620;12.188;2022-09-01T05:01:52;36.58;;;18.95;;
34828;SDS011;21042;47.620;12.188;2022-09-01T05:04:21;35.70;;;18.95;;
34828;SDS011;21042;47.620;12.188;2022-09-01T05:06:52;36.72;;;18.73;;
34828;SDS011;21042;47.620;12.188;2022-09-01T05:09:32;33.08;;;18.02;;
34828;SDS011;21042;47.620;12.188;2022-09-01T05:12:25;30.88;;;16.67;;
34828;SDS011;21042;47.620;12.188;2022-09-01T05:14:53;28.63;;;16.55;;
34828;SDS011;21042;47.620;12.188;2022-09-01T05:17:21;29.88;;;17.48;;
34828;SDS011;21042;47.620;12.188;2022-09-01T05:19:51;31.10;;;17.15;;
34828;SDS011;21042;47.620;12.188;2022-09-01T05:22:19;27.27;;;16.60;;
34828;SDS011;21042;47.620;12.188;2022-09-01T05:24:57;28.92;;;16.48;;
34828;SDS011;21042;47.620;12.188;2022-09-01T05:27:29;26.65;;;16.85;;
34828;SDS011;21042;47.620;12.188;2022-09-01T05:29:56;26.58;;;16.52;;
34828;SDS011;21042;47.620;12.188;2022-09-01T05:32:25;27.33;;;17.40;;
34828;SDS011;21042;47.620;12.188;2022-09-01T05:34:52;29.85;;;17.23;;
34828;SDS011;21042;47.620;12.188;2022-09-01T05:37:19;29.25;;;16.02;;
34828;SDS011;21042;47.620;12.188;2022-09-01T05:39:47;26.52;;;16.25;;
34828;SDS011;21042;47.620;12.188;2022-09-01T05:42:15;25.13;;;15.32;;
34828;SDS011;21042;47.620;12.188;2022-09-01T05:47:12;29.60;;;15.30;;
34828;SDS011;21042;47.620;12.188;2022-09-01T05:49:48;25.40;;;14.93;;
34828;SDS011;21042;47.620;12.188;2022-09-01T05:52:15;23.85;;;14.48;;
34828;SDS011;21042;47.620;12.188;2022-09-01T05:54:43;24.75;;;14.48;;
34828;SDS011;21042;47.620;12.188;2022-09-01T05:57:11;23.83;;;14.10;;
34828;SDS011;21042;47.620;12.188;2022-09-01T05:59:58;35.55;;;14.52;;
34828;SDS011;21042;47.620;12.188;2022-09-01T06:02:25;26.30;;;14.25;;
34828;SDS011;21042;47.620;12.188;2022-09-01T06:04:55;22.20;;;13.32;;
34828;SDS011;21042;47.620;12.188;2022-09-01T06:07:27;18.80;;;11.90;;
34828;SDS011;21042;47.620;12.188;2022-09-01T06:09:56;19.15;;;12.43;;
34828;SDS011;21042;47.620;12.188;2022-09-01T06:12:24;21.20;;;13.13;;
34828;SDS011;21042;47.620;12.188;2022-09-01T06:14:53;19.90;;;12.77;;
34828;SDS011;21042;47.620;12.188;2022-09-01T06:17:22;17.58;;;11.98;;
34828;SDS011;21042;47.620;12.188;2022-09-01T06:19:56;22.33;;;12.15;;
34828;SDS011;21042;47.620;12.188;2022-09-01T06:22:24;21.63;;;12.30;;
34828;SDS011;21042;47.620;12.188;2022-09-01T06:24:53;18.60;;;12.15;;
34828;SDS011;21042;47.620;12.188;2022-09-01T06:27:29;20.17;;;12.35;;
34828;SDS011;21042;47.620;12.188;2022-09-01T06:29:57;20.42;;;12.68;;
34828;SDS011;21042;47.620;12.188;2022-09-01T06:32:24;15.20;;;11.05;;
34828;SDS011;21042;47.620;12.188;2022-09-01T06:34:53;20.70;;;11.65;;
34828;SDS011;21042;47.620;12.188;2022-09-01T06:37:24;18.52;;;12.40;;
34828;SDS011;21042;47.620;12.188;2022-09-01T06:39:56;19.15;;;12.15;;
34828;SDS011;21042;47.620;12.188;2022-09-01T06:44:55;19.88;;;11.82;;
34828;SDS011;21042;47.620;12.188;2022-09-01T06:47:23;19.65;;;11.43;;
34828;SDS011;21042;47.620;12.188;2022-09-01T06:49:50;21.25;;;12.30;;
34828;SDS011;21042;47.620;12.188;2022-09-01T06:52:25;19.20;;;10.88;;
34828;SDS011;21042;47.620;12.188;2022-09-01T06:54:53;19.73;;;11.40;;
34828;SDS011;21042;47.620;12.188;2022-09-01T06:57:23;18.58;;;10.82;;
34828;SDS011;21042;47.620;12.188;2022-09-01T07:00:15;16.40;;;11.02;;
34828;SDS011;21042;47.620;12.188;2022-09-01T07:02:47;15.43;;;10.68;;
34828;SDS011;21042;47.620;12.188;2022-09-01T07:05:40;19.90;;;11.23;;
34828;SDS011;21042;47.620;12.188;2022-09-01T07:08:46;14.55;;;9.98;;
34828;SDS011;21042;47.620;12.188;2022-09-01T07:11:35;15.32;;;9.48;;
34828;SDS011;21042;47.620;12.188;2022-09-01T07:14:23;13.90;;;9.13;;
34828;SDS011;21042;47.620;12.188;2022-09-01T07:16:50;16.05;;;8.00;;
34828;SDS011;21042;47.620;12.188;2022-09-01T07:19:37;12.27;;;8.18;;
34828;SDS011;21042;47.620;12.188;2022-09-01T07:22:20;13.10;;;8.30;;
34828;SDS011;21042;47.620;12.188;2022-09-01T07:25:07;9.23;;;6.40;;
34828;SDS011;21042;47.620;12.188;2022-09-01T07:27:57;8.32;;;6.68;;
34828;SDS011;21042;47.620;12.188;2022-09-01T07:30:26;9.48;;;6.60;;
34828;SDS011;21042;47.620;12.188;2022-09-01T07:32:54;9.63;;;6.50;;
34828;SDS011;21042;47.620;12.188;2022-09-01T07:35:22;9.40;;;5.60;;
34828;SDS011;21042;47.620;12.188;2022-09-01T07:37:50;6.78;;;4.60;;
34828;SDS011;21042;47.620;12.188;2022-09-01T07:40:41;7.05;;;5.18;;
34828;SDS011;21042;47.620;12.188;2022-09-01T07:43:47;8.80;;;6.05;;
34828;SDS011;21042;47.620;12.188;2022-09-01T07:46:48;8.70;;;5.78;;
34828;SDS011;21042;47.620;12.188;2022-09-01T07:49:37;10.55;;;6.57;;
34828;SDS011;21042;47.620;12.188;2022-09-01T07:52:24;11.52;;;6.10;;
34828;SDS011;21042;47.620;12.188;2022-09-01T07:54:55;11.38;;;6.82;;
34828;SDS011;21042;47.620;12.188;2022-09-01T07:57:22;8.88;;;6.65;;
34828;SDS011;21042;47.620;12.188;2022-09-01T07:59:50;11.63;;;7.68;;
34828;SDS011;21042;47.620;12.188;2022-09-01T08:02:37;11.03;;;7.43;;
34828;SDS011;21042;47.620;12.188;2022-09-01T08:05:06;12.55;;;7.80;;
34828;SDS011;21042;47.620;12.188;2022-09-01T08:07:35;11.45;;;7.07;;
34828;SDS011;21042;47.620;12.188;2022-09-01T08:10:17;12.05;;;7.10;;
34828;SDS011;21042;47.620;12.188;2022-09-01T08:12:48;13.13;;;7.45;;
34828;SDS011;21042;47.620;12.188;2022-09-01T08:15:23;7.68;;;5.95;;
34828;SDS011;21042;47.620;12.188;2022-09-01T08:18:11;9.60;;;7.05;;
34828;SDS011;21042;47.620;12.188;2022-09-01T08:20:40;10.55;;;7.38;;
34828;SDS011;21042;47.620;12.188;2022-09-01T08:23:51;9.38;;;6.68;;
34828;SDS011;21042;47.620;12.188;2022-09-01T08:26:21;8.52;;;6.30;;
34828;SDS011;21042;47.620;12.188;2022-09-01T08:28:50;13.02;;;7.70;;
34828;SDS011;21042;47.620;12.188;2022-09-01T08:31:28;13.60;;;8.10;;
34828;SDS011;21042;47.620;12.188;2022-09-01T08:33:57;12.80;;;7.65;;
34828;SDS011;21042;47.620;12.188;2022-09-01T08:36:26;11.48;;;8.02;;
34828;SDS011;21042;47.620;12.188;2022-09-01T08:38:53;11.20;;;7.40;;
34828;SDS011;21042;47.620;12.188;2022-09-01T08:47:07;16.13;;;8.35;;
34828;SDS011;21042;47.620;12.188;2022-09-01T08:49:41;9.40;;;6.35;;
34828;SDS011;21042;47.620;12.188;2022-09-01T08:52:47;10.15;;;6.03;;
34828;SDS011;21042;47.620;12.188;2022-09-01T08:55:38;6.53;;;5.57;;
34828;SDS011;21042;47.620;12.188;2022-09-01T08:58:11;8.10;;;6.07;;
34828;SDS011;21042;47.620;12.188;2022-09-01T09:01:03;7.47;;;5.32;;
34828;SDS011;21042;47.620;12.188;2022-09-01T09:06:31;6.60;;;5.22;;
34828;SDS011;21042;47.620;12.188;2022-09-01T09:09:07;6.45;;;4.65;;
34828;SDS011;21042;47.620;12.188;2022-09-01T09:17:20;6.90;;;5.05;;
34828;SDS011;21042;47.620;12.188;2022-09-01T09:19:50;7.95;;;4.93;;
34828;SDS011;21042;47.620;12.188;2022-09-01T09:22:18;6.05;;;5.18;;
34828;SDS011;21042;47.620;12.188;2022-09-01T09:24:50;7.80;;;5.32;;
34828;SDS011;21042;47.620;12.188;2022-09-01T09:30:05;6.88;;;5.63;;
34828;SDS011;21042;47.620;12.188;2022-09-01T09:32:50;9.23;;;5.78;;
34828;SDS011;21042;47.620;12.188;2022-09-01T09:35:41;8.43;;;6.32;;
34828;SDS011;21042;47.620;12.188;2022-09-01T09:43:58;7.35;;;6.00;;
34828;SDS011;21042;47.620;12.188;2022-09-01T09:46:42;7.45;;;5.00;;
34828;SDS011;21042;47.620;12.188;2022-09-01T09:49:15;8.98;;;6.20;;
34828;SDS011;21042;47.620;12.188;2022-09-01T09:54:58;7.07;;;5.53;;
34828;SDS011;21042;47.620;12.188;2022-09-01T09:57:24;9.57;;;6.57;;
34828;SDS011;21042;47.620;12.188;2022-09-01T10:05:00;6.88;;;5.65;;
34828;SDS011;21042;47.620;12.188;2022-09-01T10:07:47;8.25;;;6.25;;
34828;SDS011;21042;47.620;12.188;2022-09-01T10:10:28;6.97;;;5.82;;
34828;SDS011;21042;47.620;12.188;2022-09-01T10:13:24;8.65;;;6.13;;
34828;SDS011;21042;47.620;12.188;2022-09-01T10:18:53;7.65;;;5.50;;
34828;SDS011;21042;47.620;12.188;2022-09-01T10:21:27;9.25;;;6.45;;
34828;SDS011;21042;47.620;12.188;2022-09-01T10:23:58;6.57;;;5.43;;
34828;SDS011;21042;47.620;12.188;2022-09-01T10:26:46;7.23;;;5.10;;
34828;SDS011;21042;47.620;12.188;2022-09-01T10:29:34;6.78;;;5.07;;
34828;SDS011;21042;47.620;12.188;2022-09-01T10:32:15;7.63;;;5.38;;
34828;SDS011;21042;47.620;12.188;2022-09-01T10:35:02;7.10;;;5.22;;
34828;SDS011;21042;47.620;12.188;2022-09-01T10:37:30;9.18;;;6.07;;
34828;SDS011;21042;47.620;12.188;2022-09-01T10:42:41;8.68;;;7.13;;
34828;SDS011;21042;47.620;12.188;2022-09-01T10:45:18;9.05;;;6.32;;
34828;SDS011;21042;47.620;12.188;2022-09-01T10:53:53;10.40;;;8.18;;
34828;SDS011;21042;47.620;12.188;2022-09-01T10:56:38;12.25;;;8.35;;
34828;SDS011;21042;47.620;12.188;2022-09-01T11:07:34;12.50;;;9.20;;
34828;SDS011;21042;47.620;12.188;2022-09-01T11:13:15;9.35;;;7.22;;
34828;SDS011;21042;47.620;12.188;2022-09-01T11:22:13;12.05;;;8.02;;
34828;SDS011;21042;47.620;12.188;2022-09-01T11:24:49;13.00;;;8.57;;
34828;SDS011;21042;47.620;12.188;2022-09-01T11:30:17;9.77;;;8.00;;
34828;SDS011;21042;47.620;12.188;2022-09-01T11:32:58;9.15;;;6.97;;
34828;SDS011;21042;47.620;12.188;2022-09-01T11:35:42;7.43;;;6.28;;
34828;SDS011;21042;47.620;12.188;2022-09-01T11:38:13;7.85;;;6.97;;
34828;SDS011;21042;47.620;12.188;2022-09-01T11:40:41;10.32;;;6.93;;
34828;SDS011;21042;47.620;12.188;2022-09-01T11:43:10;9.30;;;7.22;;
34828;SDS011;21042;47.620;12.188;2022-09-01T11:45:55;11.25;;;7.45;;
34828;SDS011;21042;47.620;12.188;2022-09-01T11:48:36;10.32;;;7.45;;
34828;SDS011;21042;47.620;12.188;2022-09-01T11:51:04;7.03;;;5.63;;
34828;SDS011;21042;47.620;12.188;2022-09-01T11:53:31;9.57;;;7.10;;
34828;SDS011;21042;47.620;12.188;2022-09-01T11:59:57;6.97;;;5.97;;
34828;SDS011;21042;47.620;12.188;2022-09-01T12:02:26;8.15;;;6.80;;
34828;SDS011;21042;47.620;12.188;2022-09-01T12:05:02;9.00;;;6.30;;
34828;SDS011;21042;47.620;12.188;2022-09-01T12:07:59;12.77;;;6.65;;
34828;SDS011;21042;47.620;12.188;2022-09-01T12:13:09;9.20;;;7.13;;
34828;SDS011;21042;47.620;12.188;2022-09-01T12:15:51;8.75;;;6.60;;
34828;SDS011;21042;47.620;12.188;2022-09-01T12:18:44;9.35;;;6.70;;
34828;SDS011;21042;47.620;12.188;2022-09-01T12:23:49;9.00;;;6.72;;
34828;SDS011;21042;47.620;12.188;2022-09-01T12:26:22;6.88;;;5.68;;
34828;SDS011;21042;47.620;12.188;2022-09-01T12:28:51;8.02;;;6.53;;
34828;SDS011;21042;47.620;12.188;2022-09-01T12:31:20;12.85;;;6.93;;
34828;SDS011;21042;47.620;12.188;2022-09-01T12:33:49;10.90;;;6.78;;
34828;SDS011;21042;47.620;12.188;2022-09-01T12:38:47;14.63;;;6.68;;
34828;SDS011;21042;47.620;12.188;2022-09-01T12:47:02;6.60;;;5.45;;
34828;SDS011;21042;47.620;12.188;2022-09-01T12:49:35;6.40;;;5.18;;
34828;SDS011;21042;47.620;12.188;2022-09-01T12:54:48;8.57;;;5.32;;
34828;SDS011;21042;47.620;12.188;2022-09-01T12:57:23;5.80;;;4.63;;
34828;SDS011;21042;47.620;12.188;2022-09-01T13:00:18;7.70;;;4.93;;
34828;SDS011;21042;47.620;12.188;2022-09-01T13:05:30;6.85;;;4.75;;
34828;SDS011;21042;47.620;12.188;2022-09-01T13:08:11;7.20;;;5.13;;
34828;SDS011;21042;47.620;12.188;2022-09-01T13:10:43;7.10;;;5.32;;
34828;SDS011;21042;47.620;12.188;2022-09-01T13:13:19;6.97;;;5.38;;
34828;SDS011;21042;47.620;12.188;2022-09-01T13:15:50;7.70;;;4.35;;
34828;SDS011;21042;47.620;12.188;2022-09-01T13:18:19;5.38;;;4.50;;
34828;SDS011;21042;47.620;12.188;2022-09-01T13:20:48;4.93;;;4.43;;
34828;SDS011;21042;47.620;12.188;2022-09-01T13:23:15;4.53;;;4.13;;
34828;SDS011;21042;47.620;12.188;2022-09-01T13:25:42;5.72;;;4.45;;
34828;SDS011;21042;47.620;12.188;2022-09-01T13:28:09;7.10;;;4.85;;
34828;SDS011;21042;47.620;12.188;2022-09-01T13:30:37;6.75;;;4.53;;
34828;SDS011;21042;47.620;12.188;2022-09-01T13:33:05;6.97;;;4.32;;
34828;SDS011;21042;47.620;12.188;2022-09-01T13:35:48;5.57;;;3.70;;
34828;SDS011;21042;47.620;12.188;2022-09-01T13:38:16;5.78;;;3.90;;
34828;SDS011;21042;47.620;12.188;2022-09-01T13:40:44;4.43;;;3.90;;
34828;SDS011;21042;47.620;12.188;2022-09-01T13:43:13;5.75;;;3.90;;
34828;SDS011;21042;47.620;12.188;2022-09-01T13:45:42;4.50;;;3.80;;
34828;SDS011;21042;47.620;12.188;2022-09-01T13:48:10;4.47;;;4.07;;
34828;SDS011;21042;47.620;12.188;2022-09-01T13:50:43;4.32;;;3.03;;
34828;SDS011;21042;47.620;12.188;2022-09-01T13:53:31;6.65;;;3.67;;
34828;SDS011;21042;47.620;12.188;2022-09-01T13:55:58;5.05;;;3.85;;
34828;SDS011;21042;47.620;12.188;2022-09-01T13:58:25;7.63;;;3.47;;
34828;SDS011;21042;47.620;12.188;2022-09-01T14:00:51;4.43;;;3.78;;
34828;SDS011;21042;47.620;12.188;2022-09-01T14:03:20;5.30;;;3.80;;
34828;SDS011;21042;47.620;12.188;2022-09-01T14:05:48;3.88;;;3.50;;
34828;SDS011;21042;47.620;12.188;2022-09-01T14:08:16;4.28;;;3.25;;
34828;SDS011;21042;47.620;12.188;2022-09-01T14:10:47;3.70;;;3.30;;
34828;SDS011;21042;47.620;12.188;2022-09-01T14:13:16;5.97;;;3.83;;
34828;SDS011;21042;47.620;12.188;2022-09-01T14:15:44;6.28;;;3.75;;
34828;SDS011;21042;47.620;12.188;2022-09-01T14:18:12;5.55;;;3.45;;
34828;SDS011;21042;47.620;12.188;2022-09-01T14:20:42;4.60;;;3.45;;
34828;SDS011;21042;47.620;12.188;2022-09-01T14:23:10;5.93;;;3.72;;
34828;SDS011;21042;47.620;12.188;2022-09-01T14:25:42;3.63;;;3.28;;
34828;SDS011;21042;47.620;12.188;2022-09-01T14:28:11;6.65;;;3.58;;
34828;SDS011;21042;47.620;12.188;2022-09-01T14:30:39;4.20;;;3.25;;
34828;SDS011;21042;47.620;12.188;2022-09-01T14:33:08;4.88;;;3.65;;
34828;SDS011;21042;47.620;12.188;2022-09-01T14:35:37;6.05;;;3.22;;
34828;SDS011;21042;47.620;12.188;2022-09-01T14:38:06;3.75;;;2.90;;
34828;SDS011;21042;47.620;12.188;2022-09-01T14:40:34;3.60;;;3.20;;
34828;SDS011;21042;47.620;12.188;2022-09-01T14:43:04;2.95;;;2.70;;
34828;SDS011;21042;47.620;12.188;2022-09-01T14:45:32;3.97;;;3.25;;
34828;SDS011;21042;47.620;12.188;2022-09-01T14:47:59;3.97;;;3.20;;
34828;SDS011;21042;47.620;12.188;2022-09-01T14:50:27;3.47;;;3.05;;
34828;SDS011;21042;47.620;12.188;2022-09-01T14:52:57;3.30;;;3.00;;
34828;SDS011;21042;47.620;12.188;2022-09-01T14:55:27;3.45;;;3.10;;
34828;SDS011;21042;47.620;12.188;2022-09-01T14:57:55;3.67;;;2.88;;
34828;SDS011;21042;47.620;12.188;2022-09-01T15:00:23;3.83;;;3.50;;
34828;SDS011;21042;47.620;12.188;2022-09-01T15:02:50;3.80;;;3.50;;
34828;SDS011;21042;47.620;12.188;2022-09-01T15:05:19;4.47;;;3.60;;
34828;SDS011;21042;47.620;12.188;2022-09-01T15:10:14;3.80;;;3.13;;
34828;SDS011;21042;47.620;12.188;2022-09-01T15:12:51;6.32;;;3.22;;
34828;SDS011;21042;47.620;12.188;2022-09-01T15:15:22;6.75;;;3.00;;
34828;SDS011;21042;47.620;12.188;2022-09-01T15:17:49;4.07;;;2.53;;
34828;SDS011;21042;47.620;12.188;2022-09-01T15:23:02;6.18;;;2.97;;
34828;SDS011;21042;47.620;12.188;2022-09-01T15:25:31;3.38;;;2.75;;
34828;SDS011;21042;47.620;12.188;2022-09-01T15:27:58;4.47;;;2.85;;
34828;SDS011;21042;47.620;12.188;2022-09-01T15:30:24;2.75;;;2.30;;
34828;SDS011;21042;47.620;12.188;2022-09-01T15:32:53;5.60;;;2.80;;
34828;SDS011;21042;47.620;12.188;2022-09-01T15:35:20;3.20;;;2.75;;
34828;SDS011;21042;47.620;12.188;2022-09-01T15:37:48;3.60;;;2.10;;
34828;SDS011;21042;47.620;12.188;2022-09-01T15:40:16;3.17;;;2.35;;
34828;SDS011;21042;47.620;12.188;2022-09-01T15:42:45;2.75;;;2.42;;
34828;SDS011;21042;47.620;12.188;2022-09-01T15:45:13;5.75;;;2.80;;
34828;SDS011;21042;47.620;12.188;2022-09-01T15:47:42;8.23;;;2.17;;
34828;SDS011;21042;47.620;12.188;2022-09-01T15:50:12;4.00;;;2.30;;
34828;SDS011;21042;47.620;12.188;2022-09-01T15:52:51;3.78;;;2.55;;
34828;SDS011;21042;47.620;12.188;2022-09-01T15:55:21;6.85;;;2.50;;
34828;SDS011;21042;47.620;12.188;2022-09-01T15:57:49;2.33;;;1.90;;
34828;SDS011;21042;47.620;12.188;2022-09-01T16:00:21;2.47;;;2.10;;
34828;SDS011;21042;47.620;12.188;2022-09-01T16:02:50;2.92;;;2.38;;
34828;SDS011;21042;47.620;12.188;2022-09-01T16:05:19;3.38;;;2.22;;
34828;SDS011;21042;47.620;12.188;2022-09-01T16:07:46;3.00;;;2.30;;
34828;SDS011;21042;47.620;12.188;2022-09-01T16:10:13;3.70;;;2.00;;
34828;SDS011;21042;47.620;12.188;2022-09-01T16:12:40;4.35;;;2.10;;
34828;SDS011;21042;47.620;12.188;2022-09-01T16:15:10;2.33;;;1.88;;
34828;SDS011;21042;47.620;12.188;2022-09-01T16:20:19;4.15;;;2.17;;
34828;SDS011;21042;47.620;12.188;2022-09-01T16:22:52;3.83;;;2.28;;
34828;SDS011;21042;47.620;12.188;2022-09-01T16:25:29;2.63;;;2.05;;
34828;SDS011;21042;47.620;12.188;2022-09-01T16:28:09;3.00;;;2.70;;
34828;SDS011;21042;47.620;12.188;2022-09-01T16:31:11;2.83;;;2.15;;
34828;SDS011;21042;47.620;12.188;2022-09-01T16:33:53;7.03;;;2.20;;
34828;SDS011;21042;47.620;12.188;2022-09-01T16:50:21;3.13;;;2.00;;
34828;SDS011;21042;47.620;12.188;2022-09-01T17:01:30;2.47;;;1.83;;
34828;SDS011;21042;47.620;12.188;2022-09-01T17:04:14;2.45;;;1.70;;
34828;SDS011;21042;47.620;12.188;2022-09-01T17:07:15;2.72;;;1.90;;